createdAt,value
2018-07-27T00:00:39.032Z,14.77
2018-07-27T00:01:39.023Z,14.57
2018-07-27T00:02:39.006Z,14.74
2018-07-27T00:03:39.040Z,14.71
2018-07-27T00:04:39.056Z,14.56
2018-07-27T00:05:39.006Z,14.52
2018-07-27T00:06:39.031Z,14.64
2018-07-27T00:07:39.123Z,14.81
2018-07-27T00:08:39.030Z,14.58
2018-07-27T00:09:39.035Z,14.77
2018-07-27T00:10:39.087Z,14.52
2018-07-27T00:11:39.017Z,14.61
2018-07-27T00:12:39.024Z,14.48
2018-07-27T00:13:39.060Z,14.59
2018-07-27T00:14:39.021Z,14.62
2018-07-27T00:15:39.138Z,14.99
2018-07-27T00:16:39.063Z,14.89
2018-07-27T00:17:39.015Z,14.97
2018-07-27T00:18:39.204Z,14.57
2018-07-27T00:19:39.089Z,14.57
2018-07-27T00:20:39.078Z,14.72
2018-07-27T00:21:39.219Z,14.72
2018-07-27T00:22:39.083Z,14.86
2018-07-27T00:23:39.130Z,14.72
2018-07-27T00:24:39.042Z,14.85
2018-07-27T00:25:39.146Z,14.75
2018-07-27T00:26:39.071Z,15.07
2018-07-27T00:27:39.034Z,14.88
2018-07-27T00:28:39.060Z,14.64
2018-07-27T00:29:39.150Z,14.75
2018-07-27T00:30:39.064Z,14.89
2018-07-27T00:31:39.041Z,14.66
2018-07-27T00:32:39.059Z,14.68
2018-07-27T00:33:39.151Z,14.66
2018-07-27T00:34:39.109Z,14.73
2018-07-27T00:35:39.090Z,14.73
2018-07-27T00:36:39.075Z,14.85
2018-07-27T00:37:39.070Z,14.8
2018-07-27T00:38:39.072Z,14.62
2018-07-27T00:39:39.154Z,14.74
2018-07-27T00:40:39.057Z,14.68
2018-07-27T00:41:39.107Z,14.59
2018-07-27T00:42:39.191Z,14.72
2018-07-27T00:43:39.065Z,14.66
2018-07-27T00:44:39.236Z,14.61
2018-07-27T00:45:39.081Z,14.59
2018-07-27T00:46:39.067Z,14.48
2018-07-27T00:47:39.075Z,14.39
2018-07-27T00:48:39.085Z,14.64
2018-07-27T00:49:39.092Z,14.64
2018-07-27T00:50:39.068Z,14.76
2018-07-27T00:51:39.074Z,14.53
2018-07-27T00:52:39.072Z,14.58
2018-07-27T00:53:39.087Z,14.32
2018-07-27T00:54:39.062Z,14.53
2018-07-27T00:55:39.101Z,14.6
2018-07-27T00:56:39.106Z,14.52
2018-07-27T00:57:39.112Z,14.66
2018-07-27T00:58:39.119Z,14.54
2018-07-27T00:59:39.081Z,14.61
2018-07-27T01:00:39.111Z,14.48
2018-07-27T01:01:39.094Z,14.57
2018-07-27T01:02:39.082Z,14.64
2018-07-27T01:03:39.085Z,14.67
2018-07-27T01:04:39.124Z,14.64
2018-07-27T01:05:39.324Z,14.63
2018-07-27T01:06:39.111Z,14.62
2018-07-27T01:07:39.171Z,14.72
2018-07-27T01:08:39.117Z,14.59
2018-07-27T01:09:39.130Z,14.68
2018-07-27T01:10:39.145Z,14.64
2018-07-27T01:11:39.105Z,14.46
2018-07-27T01:12:39.112Z,14.59
2018-07-27T01:13:39.141Z,14.63
2018-07-27T01:14:39.120Z,14.68
2018-07-27T01:15:39.122Z,14.62
2018-07-27T01:16:39.092Z,14.6
2018-07-27T01:17:39.209Z,14.42
2018-07-27T01:18:39.144Z,14.69
2018-07-27T01:19:39.120Z,14.75
2018-07-27T01:20:39.137Z,14.56
2018-07-27T01:21:39.181Z,14.61
2018-07-27T01:22:39.141Z,14.52
2018-07-27T01:23:39.338Z,14.52
2018-07-27T01:24:39.156Z,14.55
2018-07-27T01:25:39.143Z,14.47
2018-07-27T01:26:39.164Z,14.46
2018-07-27T01:27:39.336Z,14.54
2018-07-27T01:28:39.167Z,14.45
2018-07-27T01:29:39.350Z,14.43
2018-07-27T01:30:39.111Z,14.45
2018-07-27T01:31:39.270Z,14.33
2018-07-27T01:32:39.206Z,14.37
2018-07-27T01:33:39.121Z,14.44
2018-07-27T01:34:39.318Z,14.34
2018-07-27T01:35:39.124Z,14.45
2018-07-27T01:36:39.149Z,14.4
2018-07-27T01:37:39.200Z,14.13
2018-07-27T01:38:39.164Z,14.2
2018-07-27T01:39:39.184Z,14.55
2018-07-27T01:40:39.154Z,14.57
2018-07-27T01:41:39.176Z,14.51
2018-07-27T01:42:39.185Z,14.6
2018-07-27T01:43:39.234Z,14.6
2018-07-27T01:44:39.360Z,14.59
2018-07-27T01:45:39.158Z,14.4
2018-07-27T01:46:39.200Z,14.4
2018-07-27T01:47:39.151Z,14.23
2018-07-27T01:48:39.255Z,14.4
2018-07-27T01:49:39.183Z,14.36
2018-07-27T01:50:39.258Z,14.21
2018-07-27T01:51:39.321Z,14.23
2018-07-27T01:52:39.169Z,14.28
2018-07-27T01:53:39.157Z,14.29
2018-07-27T01:54:39.254Z,14.3
2018-07-27T01:55:39.218Z,14.3
2018-07-27T01:56:39.459Z,14.32
2018-07-27T01:57:39.168Z,14.34
2018-07-27T01:58:39.192Z,14.34
2018-07-27T01:59:39.161Z,14.33
2018-07-27T02:00:39.194Z,14.48
2018-07-27T02:01:39.264Z,14.4
2018-07-27T02:02:39.189Z,14.34
2018-07-27T02:03:39.178Z,14.4
2018-07-27T02:04:39.187Z,14.43
2018-07-27T02:05:39.149Z,14.43
2018-07-27T02:06:39.177Z,14.42
2018-07-27T02:07:39.155Z,14.49
2018-07-27T02:08:39.161Z,14.47
2018-07-27T02:09:39.179Z,14.55
2018-07-27T02:10:39.171Z,14.4
2018-07-27T02:11:39.157Z,14.44
2018-07-27T02:12:39.167Z,14.26
2018-07-27T02:13:39.186Z,14.42
2018-07-27T02:14:39.187Z,14.38
2018-07-27T02:15:39.215Z,14.2
2018-07-27T02:16:39.204Z,14.13
2018-07-27T02:17:39.198Z,14.37
2018-07-27T02:18:39.184Z,14.34
2018-07-27T02:19:39.188Z,14.12
2018-07-27T02:20:39.197Z,14.36
2018-07-27T02:21:39.205Z,14.26
2018-07-27T02:22:39.201Z,14.32
2018-07-27T02:23:39.623Z,14.37
2018-07-27T02:24:39.299Z,14.24
2018-07-27T02:25:39.221Z,14.3
2018-07-27T02:26:39.368Z,14.13
2018-07-27T02:27:39.217Z,14.19
2018-07-27T02:28:39.194Z,14.14
2018-07-27T02:29:39.289Z,14
2018-07-27T02:30:39.214Z,14.13
2018-07-27T02:31:39.219Z,14.03
2018-07-27T02:32:39.428Z,14.24
2018-07-27T02:33:39.579Z,14.52
2018-07-27T02:34:39.212Z,14.2
2018-07-27T02:35:39.248Z,14.33
2018-07-27T02:36:39.238Z,14.18
2018-07-27T02:37:39.452Z,14.36
2018-07-27T02:38:39.210Z,14.38
2018-07-27T02:39:39.233Z,14.45
2018-07-27T02:40:39.214Z,14.56
2018-07-27T02:41:39.227Z,14.46
2018-07-27T02:42:39.244Z,14.66
2018-07-27T02:43:39.228Z,14.71
2018-07-27T02:44:39.296Z,14.42
2018-07-27T02:45:39.354Z,14.53
2018-07-27T02:46:39.339Z,14.42
2018-07-27T02:47:39.271Z,14.58
2018-07-27T02:48:39.288Z,14.68
2018-07-27T02:49:39.329Z,14.47
2018-07-27T02:50:39.253Z,14.26
2018-07-27T02:51:39.405Z,14.51
2018-07-27T02:52:39.379Z,14.5
2018-07-27T02:53:39.254Z,14.61
2018-07-27T02:54:39.252Z,14.38
2018-07-27T02:55:39.226Z,14.75
2018-07-27T02:56:39.259Z,14.56
2018-07-27T02:57:39.566Z,14.35
2018-07-27T02:58:39.306Z,14.68
2018-07-27T02:59:39.324Z,14.58
2018-07-27T03:00:39.443Z,14.51
2018-07-27T03:01:39.275Z,14.49
2018-07-27T03:02:39.284Z,14.71
2018-07-27T03:03:39.230Z,14.59
2018-07-27T03:04:39.361Z,14.69
2018-07-27T03:05:39.460Z,14.73
2018-07-27T03:06:39.270Z,14.68
2018-07-27T03:07:39.259Z,14.72
2018-07-27T03:08:39.267Z,14.61
2018-07-27T03:09:39.463Z,14.61
2018-07-27T03:10:39.311Z,14.4
2018-07-27T03:11:39.255Z,14.44
2018-07-27T03:12:39.304Z,14.55
2018-07-27T03:13:39.402Z,14.52
2018-07-27T03:14:39.476Z,14.65
2018-07-27T03:15:39.270Z,14.62
2018-07-27T03:16:39.275Z,14.51
2018-07-27T03:17:39.311Z,14.58
2018-07-27T03:18:39.291Z,14.69
2018-07-27T03:19:39.279Z,14.75
2018-07-27T03:20:39.278Z,14.74
2018-07-27T03:21:39.299Z,14.76
2018-07-27T03:22:39.271Z,14.76
2018-07-27T03:23:39.284Z,14.82
2018-07-27T03:24:39.436Z,14.85
2018-07-27T03:25:39.268Z,14.82
2018-07-27T03:26:39.260Z,14.91
2018-07-27T03:27:39.352Z,14.99
2018-07-27T03:28:39.268Z,14.97
2018-07-27T03:29:39.370Z,15
2018-07-27T03:30:39.322Z,14.95
2018-07-27T03:31:39.286Z,15
2018-07-27T03:32:39.270Z,15.02
2018-07-27T03:33:39.328Z,14.94
2018-07-27T03:34:39.321Z,14.78
2018-07-27T03:35:39.299Z,14.95
2018-07-27T03:36:39.300Z,14.92
2018-07-27T03:37:39.286Z,14.97
2018-07-27T03:38:39.308Z,14.93
2018-07-27T03:39:39.293Z,14.88
2018-07-27T03:40:39.399Z,14.81
2018-07-27T03:41:39.319Z,14.88
2018-07-27T03:42:39.368Z,14.75
2018-07-27T03:43:39.424Z,14.74
2018-07-27T03:44:39.289Z,14.76
2018-07-27T03:45:39.291Z,14.74
2018-07-27T03:46:39.343Z,14.72
2018-07-27T03:47:39.378Z,14.73
2018-07-27T03:48:39.542Z,14.53
2018-07-27T03:49:39.317Z,14.48
2018-07-27T03:50:39.328Z,14.52
2018-07-27T03:51:39.373Z,14.49
2018-07-27T03:52:39.346Z,14.4
2018-07-27T03:53:39.334Z,14.41
2018-07-27T03:54:39.294Z,14.43
2018-07-27T03:55:39.315Z,14.37
2018-07-27T03:56:39.342Z,14.27
2018-07-27T03:57:39.379Z,14.01
2018-07-27T03:58:39.347Z,14.1
2018-07-27T03:59:39.382Z,14.13
2018-07-27T04:00:39.531Z,14.36
2018-07-27T04:01:39.304Z,14.41
2018-07-27T04:02:39.386Z,14.31
2018-07-27T04:03:39.506Z,14.38
2018-07-27T04:04:39.304Z,14.42
2018-07-27T04:05:39.396Z,14.32
2018-07-27T04:06:39.311Z,14.37
2018-07-27T04:07:39.398Z,14.41
2018-07-27T04:08:39.690Z,14.25
2018-07-27T04:09:39.330Z,14.23
2018-07-27T04:10:39.325Z,14.48
2018-07-27T04:11:39.418Z,14.31
2018-07-27T04:12:39.312Z,14.34
2018-07-27T04:13:39.379Z,14.38
2018-07-27T04:14:39.412Z,14.19
2018-07-27T04:15:39.336Z,14.32
2018-07-27T04:16:39.513Z,14.45
2018-07-27T04:17:39.333Z,14.45
2018-07-27T04:18:39.370Z,14.49
2018-07-27T04:19:39.419Z,14.45
2018-07-27T04:20:39.376Z,14.36
2018-07-27T04:21:39.421Z,14.49
2018-07-27T04:22:39.455Z,14.43
2018-07-27T04:23:39.363Z,14.46
2018-07-27T04:24:39.463Z,14.39
2018-07-27T04:25:39.328Z,14.47
2018-07-27T04:26:39.369Z,14.42
2018-07-27T04:27:39.350Z,14.27
2018-07-27T04:28:39.470Z,14.41
2018-07-27T04:29:39.381Z,14.44
2018-07-27T04:30:39.403Z,14.52
2018-07-27T04:31:39.418Z,14.5
2018-07-27T04:32:39.366Z,14.49
2018-07-27T04:33:39.353Z,14.5
2018-07-27T04:34:39.390Z,14.47
2018-07-27T04:35:39.699Z,14.44
2018-07-27T04:36:39.351Z,14.26
2018-07-27T04:37:39.400Z,14.4
2018-07-27T04:38:39.388Z,14.51
2018-07-27T04:39:39.363Z,14.43
2018-07-27T04:40:39.379Z,14.35
2018-07-27T04:41:39.382Z,14.41
2018-07-27T04:42:39.366Z,14.4
2018-07-27T04:43:39.397Z,14.23
2018-07-27T04:44:39.414Z,14.38
2018-07-27T04:45:39.354Z,14.37
2018-07-27T04:46:39.406Z,14.66
2018-07-27T04:47:39.362Z,14.62
2018-07-27T04:48:39.413Z,14.63
2018-07-27T04:49:39.437Z,14.51
2018-07-27T04:50:39.382Z,14.55
2018-07-27T04:51:39.398Z,14.59
2018-07-27T04:52:39.382Z,14.41
2018-07-27T04:53:39.461Z,14.6
2018-07-27T04:54:39.426Z,14.32
2018-07-27T04:55:39.395Z,14.54
2018-07-27T04:56:40.160Z,14.44
2018-07-27T04:57:39.468Z,14.64
2018-07-27T04:58:39.426Z,14.48
2018-07-27T04:59:39.500Z,14.65
2018-07-27T05:00:39.408Z,14.72
2018-07-27T05:01:39.517Z,14.71
2018-07-27T05:02:39.482Z,14.64
2018-07-27T05:03:39.437Z,14.51
2018-07-27T05:04:39.721Z,14.59
2018-07-27T05:05:39.438Z,14.66
2018-07-27T05:06:39.422Z,14.66
2018-07-27T05:07:39.569Z,14.7
2018-07-27T05:08:39.479Z,14.76
2018-07-27T05:09:39.450Z,14.75
2018-07-27T05:10:39.426Z,14.67
2018-07-27T05:11:39.460Z,14.78
2018-07-27T05:12:39.443Z,14.71
2018-07-27T05:13:39.406Z,14.74
2018-07-27T05:14:39.445Z,14.55
2018-07-27T05:15:39.416Z,14.59
2018-07-27T05:16:39.561Z,14.65
2018-07-27T05:17:39.401Z,14.71
2018-07-27T05:18:39.529Z,14.6
2018-07-27T05:19:39.429Z,14.69
2018-07-27T05:20:39.475Z,14.58
2018-07-27T05:21:39.436Z,14.57
2018-07-27T05:22:39.443Z,14.54
2018-07-27T05:23:39.451Z,14.86
2018-07-27T05:24:39.944Z,14.65
2018-07-27T05:25:39.530Z,14.61
2018-07-27T05:26:39.502Z,14.91
2018-07-27T05:27:39.443Z,14.9
2018-07-27T05:28:39.716Z,14.78
2018-07-27T05:29:39.506Z,15.02
2018-07-27T05:30:39.495Z,14.85
2018-07-27T05:31:39.474Z,14.8
2018-07-27T05:32:39.452Z,14.34
2018-07-27T05:33:39.462Z,14.33
2018-07-27T05:34:39.619Z,14.52
2018-07-27T05:35:39.481Z,14.34
2018-07-27T05:36:39.466Z,14.29
2018-07-27T05:37:39.545Z,14.23
2018-07-27T05:38:39.719Z,14.35
2018-07-27T05:39:39.583Z,14.24
2018-07-27T05:40:39.474Z,14.29
2018-07-27T05:41:39.462Z,14.18
2018-07-27T05:42:39.465Z,14.04
2018-07-27T05:43:39.481Z,14.13
2018-07-27T05:44:39.487Z,14.08
2018-07-27T05:45:39.557Z,14
2018-07-27T05:46:39.520Z,13.95
2018-07-27T05:47:39.473Z,14.03
2018-07-27T05:48:39.789Z,13.9
2018-07-27T05:49:39.634Z,13.98
2018-07-27T05:50:39.460Z,13.97
2018-07-27T05:51:39.541Z,13.91
2018-07-27T05:52:39.750Z,13.93
2018-07-27T05:53:39.511Z,13.96
2018-07-27T05:54:39.475Z,13.95
2018-07-27T05:55:39.497Z,13.95
2018-07-27T05:56:39.468Z,13.87
2018-07-27T05:57:39.484Z,13.97
2018-07-27T05:58:39.549Z,14.2
2018-07-27T05:59:39.522Z,14.04
2018-07-27T06:00:39.511Z,14.06
2018-07-27T06:01:39.515Z,14.16
2018-07-27T06:02:39.835Z,14.02
2018-07-27T06:03:39.547Z,13.99
2018-07-27T06:04:39.522Z,14.07
2018-07-27T06:05:39.479Z,14
2018-07-27T06:06:39.505Z,13.98
2018-07-27T06:07:39.498Z,13.93
2018-07-27T06:08:39.709Z,13.93
2018-07-27T06:09:39.491Z,13.95
2018-07-27T06:10:39.513Z,14.02
2018-07-27T06:11:39.533Z,14.08
2018-07-27T06:12:39.546Z,13.87
2018-07-27T06:13:39.544Z,13.9
2018-07-27T06:14:39.524Z,13.91
2018-07-27T06:15:39.591Z,13.87
2018-07-27T06:16:39.523Z,13.9
2018-07-27T06:17:39.502Z,13.86
2018-07-27T06:18:39.509Z,13.91
2018-07-27T06:19:39.740Z,13.94
2018-07-27T06:20:39.523Z,13.9
2018-07-27T06:21:39.549Z,13.96
2018-07-27T06:22:39.508Z,14.01
2018-07-27T06:23:39.623Z,14.02
2018-07-27T06:24:39.615Z,14.05
2018-07-27T06:25:39.893Z,14.11
2018-07-27T06:26:39.915Z,14.11
2018-07-27T06:27:39.590Z,14.11
2018-07-27T06:28:39.602Z,14.09
2018-07-27T06:29:39.695Z,14.07
2018-07-27T06:30:39.535Z,14.1
2018-07-27T06:31:39.598Z,14.17
2018-07-27T06:32:40.164Z,14.11
2018-07-27T06:33:39.536Z,14.27
2018-07-27T06:34:39.561Z,14.19
2018-07-27T06:35:39.522Z,14.13
2018-07-27T06:36:39.634Z,14.17
2018-07-27T06:37:39.556Z,14.18
2018-07-27T06:38:39.689Z,14.27
2018-07-27T06:39:39.563Z,14.26
2018-07-27T06:40:39.557Z,14.14
2018-07-27T06:41:39.549Z,14.14
2018-07-27T06:42:39.681Z,14.11
2018-07-27T06:43:39.596Z,14.01
2018-07-27T06:44:39.725Z,14.15
2018-07-27T06:45:39.563Z,14.13
2018-07-27T06:46:39.584Z,14.16
2018-07-27T06:47:39.563Z,14.34
2018-07-27T06:48:39.543Z,14.34
2018-07-27T06:49:39.547Z,14.39
2018-07-27T06:50:39.651Z,14.36
2018-07-27T06:51:39.569Z,14.34
2018-07-27T06:52:39.564Z,14.32
2018-07-27T06:53:39.628Z,14.39
2018-07-27T06:54:39.599Z,14.33
2018-07-27T06:55:39.666Z,14.35
2018-07-27T06:56:39.698Z,14.51
2018-07-27T06:57:39.631Z,14.57
2018-07-27T06:58:39.614Z,14.36
2018-07-27T06:59:39.545Z,14.49
2018-07-27T07:00:39.672Z,14.58
2018-07-27T07:01:39.566Z,14.43
2018-07-27T07:02:39.543Z,14.36
2018-07-27T07:03:39.652Z,14.36
2018-07-27T07:04:39.549Z,14.39
2018-07-27T07:05:39.637Z,14.6
2018-07-27T07:06:39.576Z,14.58
2018-07-27T07:07:39.630Z,14.58
2018-07-27T07:08:39.557Z,14.8
2018-07-27T07:09:39.558Z,14.56
2018-07-27T07:10:39.568Z,14.57
2018-07-27T07:11:39.557Z,14.41
2018-07-27T07:12:39.559Z,14.15
2018-07-27T07:13:39.589Z,14.34
2018-07-27T07:14:39.591Z,14.32
2018-07-27T07:15:39.587Z,14.36
2018-07-27T07:16:41.845Z,14.37
2018-07-27T07:17:39.536Z,14.35
2018-07-27T07:18:39.595Z,14.32
2018-07-27T07:19:39.579Z,14.3
2018-07-27T07:20:39.602Z,14.07
2018-07-27T07:21:39.602Z,14.06
2018-07-27T07:22:39.566Z,14.08
2018-07-27T07:23:39.588Z,14.2
2018-07-27T07:24:39.580Z,14.2
2018-07-27T07:25:41.096Z,14.42
2018-07-27T07:26:39.576Z,14.25
2018-07-27T07:27:39.608Z,14.03
2018-07-27T07:28:39.585Z,14.09
2018-07-27T07:29:39.577Z,14.07
2018-07-27T07:30:39.577Z,14.2
2018-07-27T07:31:39.572Z,14.18
2018-07-27T07:32:39.631Z,13.93
2018-07-27T07:33:39.630Z,14.1
2018-07-27T07:34:39.568Z,14.11
2018-07-27T07:35:39.577Z,14.25
2018-07-27T07:36:39.684Z,14.23
2018-07-27T07:37:39.649Z,14.01
2018-07-27T07:38:39.604Z,14.17
2018-07-27T07:39:39.694Z,14.13
2018-07-27T07:40:39.683Z,13.98
2018-07-27T07:41:39.609Z,14.07
2018-07-27T07:42:39.746Z,14.06
2018-07-27T07:43:39.789Z,14.1
2018-07-27T07:44:39.634Z,14.3
2018-07-27T07:45:44.711Z,14.36
2018-07-27T07:46:39.617Z,14.52
2018-07-27T07:47:39.645Z,14.48
2018-07-27T07:48:39.684Z,14.31
2018-07-27T07:49:39.597Z,14.24
2018-07-27T07:50:39.626Z,14.3
2018-07-27T07:51:39.621Z,14.29
2018-07-27T07:52:39.640Z,14.39
2018-07-27T07:53:39.645Z,14.43
2018-07-27T07:54:39.612Z,14.4
2018-07-27T07:55:39.629Z,14.41
2018-07-27T07:56:39.729Z,14.57
2018-07-27T07:57:39.615Z,14.68
2018-07-27T07:58:39.976Z,14.69
2018-07-27T07:59:39.616Z,14.74
2018-07-27T08:00:39.620Z,14.69
2018-07-27T08:01:39.620Z,14.68
2018-07-27T08:02:39.710Z,14.63
2018-07-27T08:03:39.639Z,14.67
2018-07-27T08:04:39.670Z,14.67
2018-07-27T08:05:39.895Z,14.73
2018-07-27T08:06:39.706Z,14.74
2018-07-27T08:07:39.650Z,14.91
2018-07-27T08:08:39.770Z,14.57
2018-07-27T08:09:39.688Z,14.48
2018-07-27T08:10:39.769Z,14.53
2018-07-27T08:11:39.729Z,14.52
2018-07-27T08:12:39.637Z,14.6
2018-07-27T08:13:39.641Z,14.67
2018-07-27T08:14:39.619Z,14.77
2018-07-27T08:15:39.707Z,14.75
2018-07-27T08:16:39.662Z,14.99
2018-07-27T08:17:39.781Z,14.96
2018-07-27T08:18:39.645Z,14.91
2018-07-27T08:19:39.657Z,15.04
2018-07-27T08:20:39.653Z,15.18
2018-07-27T08:21:39.798Z,15.01
2018-07-27T08:22:39.664Z,15.18
2018-07-27T08:23:39.702Z,15.18
2018-07-27T08:24:39.627Z,15.39
2018-07-27T08:25:39.684Z,15.32
2018-07-27T08:26:39.665Z,15.09
2018-07-27T08:27:39.660Z,15.07
2018-07-27T08:28:39.675Z,15.07
2018-07-27T08:29:39.682Z,15.31
2018-07-27T08:30:39.664Z,15.23
2018-07-27T08:31:39.668Z,15.28
2018-07-27T08:32:39.703Z,15.22
2018-07-27T08:33:39.661Z,15.13
2018-07-27T08:34:39.665Z,15.04
2018-07-27T08:35:39.732Z,15.07
2018-07-27T08:36:39.662Z,15.04
2018-07-27T08:37:39.713Z,15.17
2018-07-27T08:38:39.673Z,15.19
2018-07-27T08:39:40.062Z,15.08
2018-07-27T08:40:39.714Z,15.28
2018-07-27T08:41:39.676Z,15.08
2018-07-27T08:42:39.925Z,15.16
2018-07-27T08:43:39.711Z,15.15
2018-07-27T08:44:39.718Z,15.07
2018-07-27T08:45:39.665Z,15.12
2018-07-27T08:46:39.718Z,15.13
2018-07-27T08:47:39.986Z,14.99
2018-07-27T08:48:39.958Z,15.14
2018-07-27T08:49:39.668Z,15.18
2018-07-27T08:50:39.690Z,15.16
2018-07-27T08:51:39.702Z,15.14
2018-07-27T08:52:39.688Z,15.24
2018-07-27T08:53:39.804Z,15.33
2018-07-27T08:54:39.700Z,15.44
2018-07-27T08:55:39.789Z,15.34
2018-07-27T08:56:39.742Z,15.46
2018-07-27T08:57:39.698Z,15.43
2018-07-27T08:58:39.915Z,15.35
2018-07-27T08:59:39.732Z,15.42
2018-07-27T09:00:39.830Z,15.43
2018-07-27T09:01:39.755Z,15.39
2018-07-27T09:02:39.726Z,15.45
2018-07-27T09:03:39.744Z,15.37
2018-07-27T09:04:39.733Z,15.47
2018-07-27T09:05:39.736Z,15.46
2018-07-27T09:06:39.707Z,15.42
2018-07-27T09:07:39.779Z,15.33
2018-07-27T09:08:39.974Z,15.39
2018-07-27T09:09:39.734Z,15.6
2018-07-27T09:10:39.697Z,15.51
2018-07-27T09:11:39.803Z,15.47
2018-07-27T09:12:39.706Z,15.46
2018-07-27T09:13:39.866Z,15.54
2018-07-27T09:14:39.767Z,15.49
2018-07-27T09:15:39.751Z,15.35
2018-07-27T09:16:39.790Z,15.44
2018-07-27T09:17:39.773Z,15.41
2018-07-27T09:18:39.720Z,15.46
2018-07-27T09:19:39.788Z,15.59
2018-07-27T09:20:39.717Z,15.39
2018-07-27T09:21:40.059Z,15.4
2018-07-27T09:22:39.733Z,15.39
2018-07-27T09:23:39.933Z,15.41
2018-07-27T09:24:41.130Z,15.45
2018-07-27T09:25:39.796Z,15.56
2018-07-27T09:26:39.734Z,15.54
2018-07-27T09:27:39.791Z,15.44
2018-07-27T09:28:39.785Z,15.41
2018-07-27T09:29:39.717Z,15.42
2018-07-27T09:30:39.811Z,15.46
2018-07-27T09:31:39.735Z,15.28
2018-07-27T09:32:39.740Z,15.23
2018-07-27T09:33:39.719Z,14.97
2018-07-27T09:34:40.147Z,14.94
2018-07-27T09:35:39.917Z,15.22
2018-07-27T09:36:39.749Z,15.24
2018-07-27T09:37:39.858Z,15.2
2018-07-27T09:38:39.733Z,15.27
2018-07-27T09:39:39.861Z,15.26
2018-07-27T09:40:39.738Z,15.03
2018-07-27T09:41:39.754Z,15.09
2018-07-27T09:42:39.763Z,15.2
2018-07-27T09:43:39.777Z,15.22
2018-07-27T09:44:39.742Z,15.23
2018-07-27T09:45:39.721Z,15.32
2018-07-27T09:46:40.270Z,15.46
2018-07-27T09:47:39.739Z,15.38
2018-07-27T09:48:40.034Z,15.34
2018-07-27T09:49:39.771Z,15.26
2018-07-27T09:50:39.764Z,15.43
2018-07-27T09:51:40.245Z,15.44
2018-07-27T09:52:39.782Z,15.29
2018-07-27T09:53:40.242Z,15.15
2018-07-27T09:54:39.767Z,15.17
2018-07-27T09:55:39.792Z,15.21
2018-07-27T09:56:39.780Z,15.11
2018-07-27T09:57:39.793Z,15.05
2018-07-27T09:58:39.758Z,14.96
2018-07-27T09:59:38.021Z,15.09
2018-07-27T10:00:38.051Z,15.16
2018-07-27T10:01:38.083Z,14.83
2018-07-27T10:02:38.717Z,14.89
2018-07-27T10:03:38.000Z,14.76
2018-07-27T10:04:38.131Z,14.78
2018-07-27T10:05:38.076Z,14.72
2018-07-27T10:06:38.214Z,14.9
2018-07-27T10:07:38.075Z,15.05
2018-07-27T10:08:38.081Z,15.1
2018-07-27T10:09:38.057Z,15.13
2018-07-27T10:10:38.446Z,14.95
2018-07-27T10:11:38.010Z,15.07
2018-07-27T10:12:38.194Z,15.17
2018-07-27T10:13:38.031Z,15.25
2018-07-27T10:14:38.148Z,15.33
2018-07-27T10:15:38.095Z,15.35
2018-07-27T10:16:38.481Z,15.49
2018-07-27T10:17:38.163Z,15.41
2018-07-27T10:18:38.012Z,15.28
2018-07-27T10:19:38.428Z,15.14
2018-07-27T10:20:38.188Z,14.91
2018-07-27T10:21:38.426Z,15.2
2018-07-27T10:22:38.092Z,14.94
2018-07-27T10:23:38.088Z,14.85
2018-07-27T10:24:38.024Z,15.13
2018-07-27T10:25:38.172Z,15.25
2018-07-27T10:26:38.027Z,14.96
2018-07-27T10:27:38.072Z,15.06
2018-07-27T10:28:38.051Z,15.02
2018-07-27T10:29:38.016Z,15.09
2018-07-27T10:30:38.037Z,15.03
2018-07-27T10:31:38.047Z,15.02
2018-07-27T10:32:38.053Z,14.62
2018-07-27T10:33:38.127Z,14.8
2018-07-27T10:34:38.087Z,14.97
2018-07-27T10:35:38.096Z,14.94
2018-07-27T10:36:38.515Z,15.08
2018-07-27T10:37:38.116Z,15.11
2018-07-27T10:38:38.489Z,15.15
2018-07-27T10:39:38.097Z,15.07
2018-07-27T10:40:38.106Z,15
2018-07-27T10:41:38.037Z,15.09
2018-07-27T10:42:38.109Z,14.98
2018-07-27T10:43:38.014Z,14.86
2018-07-27T10:44:38.060Z,14.65
2018-07-27T10:45:38.069Z,14.61
2018-07-27T10:46:38.005Z,15.01
2018-07-27T10:47:38.038Z,14.69
2018-07-27T10:48:38.160Z,14.67
2018-07-27T10:49:38.021Z,14.6
2018-07-27T10:50:38.434Z,14.6
2018-07-27T10:51:38.032Z,14.76
2018-07-27T10:52:38.053Z,14.56
2018-07-27T10:53:41.874Z,14.67
2018-07-27T10:54:38.444Z,14.59
2018-07-27T10:55:38.033Z,14.42
2018-07-27T10:56:38.013Z,14.55
2018-07-27T10:57:38.706Z,14.39
2018-07-27T10:58:38.068Z,14.21
2018-07-27T10:59:38.021Z,14.56
2018-07-27T11:00:38.004Z,14.48
2018-07-27T11:01:38.031Z,14.62
2018-07-27T11:02:38.386Z,14.63
2018-07-27T11:03:38.048Z,14.8
2018-07-27T11:04:38.024Z,14.75
2018-07-27T11:05:38.040Z,14.84
2018-07-27T11:06:38.049Z,14.76
2018-07-27T11:07:38.088Z,14.6
2018-07-27T11:08:38.183Z,14.82
2018-07-27T11:09:38.131Z,15.04
2018-07-27T11:10:38.021Z,14.76
2018-07-27T11:11:38.025Z,14.82
2018-07-27T11:12:38.137Z,14.81
2018-07-27T11:13:38.014Z,14.5
2018-07-27T11:14:38.024Z,14.61
2018-07-27T11:15:38.018Z,14.59
2018-07-27T11:16:38.063Z,14.81
2018-07-27T11:17:38.759Z,14.1
2018-07-27T11:18:38.159Z,14.06
2018-07-27T11:19:38.172Z,14.13
2018-07-27T11:20:38.030Z,14.33
2018-07-27T11:21:38.093Z,14.4
2018-07-27T11:22:38.016Z,14.57
2018-07-27T11:23:38.050Z,14.35
2018-07-27T11:24:38.032Z,14.61
2018-07-27T11:25:38.352Z,14.44
2018-07-27T11:26:38.077Z,14.38
2018-07-27T11:27:38.069Z,14.15
2018-07-27T11:28:38.053Z,14.27
2018-07-27T11:29:38.048Z,14.61
2018-07-27T11:30:38.077Z,14.49
2018-07-27T11:31:38.051Z,14.39
2018-07-27T11:32:38.055Z,14.65
2018-07-27T11:33:38.036Z,14.84
2018-07-27T11:34:38.090Z,14.86
2018-07-27T11:35:38.014Z,14.27
2018-07-27T11:36:37.993Z,14.28
2018-07-27T11:37:38.075Z,14.6
2018-07-27T11:38:38.051Z,14.42
2018-07-27T11:39:37.998Z,14.39
2018-07-27T11:40:38.239Z,14.16
2018-07-27T11:41:38.048Z,14.18
2018-07-27T11:42:38.492Z,14.24
2018-07-27T11:43:38.045Z,14.76
2018-07-27T11:44:38.135Z,14.91
2018-07-27T11:45:38.176Z,14.7
2018-07-27T11:46:38.209Z,14.41
2018-07-27T11:47:38.035Z,14.64
2018-07-27T11:48:38.018Z,14.52
2018-07-27T11:49:37.997Z,14.43
2018-07-27T11:50:38.011Z,13.94
2018-07-27T11:51:38.025Z,14.32
2018-07-27T11:52:38.016Z,14.25
2018-07-27T11:53:38.050Z,13.76
2018-07-27T11:54:38.157Z,13.99
2018-07-27T11:55:38.139Z,13.72
2018-07-27T11:56:38.103Z,13.57
2018-07-27T11:57:38.167Z,13.5
2018-07-27T11:58:38.370Z,14.08
2018-07-27T11:59:38.174Z,13.53
2018-07-27T12:00:38.384Z,13.79
2018-07-27T12:01:38.950Z,13.86
2018-07-27T12:02:38.229Z,14.01
2018-07-27T12:03:38.193Z,13.69
2018-07-27T12:04:38.214Z,13.32
2018-07-27T12:05:38.100Z,12.81
2018-07-27T12:06:38.404Z,13.48
2018-07-27T12:07:38.102Z,12.95
2018-07-27T12:08:38.295Z,13.01
2018-07-27T12:09:38.143Z,12.56
2018-07-27T12:10:38.213Z,11.74
2018-07-27T12:11:39.218Z,11.86
2018-07-27T12:12:38.101Z,11.34
2018-07-27T12:13:38.257Z,11.5
2018-07-27T12:14:40.411Z,11.46
2018-07-27T12:15:38.173Z,11.58
2018-07-27T12:16:38.097Z,11.45
2018-07-27T12:17:38.042Z,11.39
2018-07-27T12:18:38.179Z,11.71
2018-07-27T12:19:38.085Z,11.61
2018-07-27T12:20:38.558Z,11.53
2018-07-27T12:21:40.235Z,11.62
2018-07-27T12:22:38.015Z,11.82
2018-07-27T12:23:38.115Z,12.07
2018-07-27T12:24:38.112Z,12.09
2018-07-27T12:25:37.995Z,12.17
2018-07-27T12:26:38.250Z,12.69
2018-07-27T12:27:38.039Z,12.46
2018-07-27T12:28:38.002Z,12.56
2018-07-27T12:29:38.050Z,11.92
2018-07-27T12:30:38.477Z,11.76
2018-07-27T12:31:38.026Z,11.9
2018-07-27T12:32:38.371Z,11.92
2018-07-27T12:33:38.013Z,11.94
2018-07-27T12:34:38.195Z,12.15
2018-07-27T12:35:38.004Z,11.72
2018-07-27T12:36:38.036Z,12.12
2018-07-27T12:37:38.522Z,12.44
2018-07-27T12:38:38.163Z,12.41
2018-07-27T12:39:38.078Z,12.33
2018-07-27T12:40:38.264Z,12.34
2018-07-27T12:41:38.008Z,11.82
2018-07-27T12:42:38.385Z,11.73
2018-07-27T12:43:38.009Z,11.87
2018-07-27T12:44:38.366Z,12.29
2018-07-27T12:45:38.065Z,12.55
2018-07-27T12:46:38.200Z,11.83
2018-07-27T12:47:38.156Z,12.34
2018-07-27T12:48:38.194Z,11.38
2018-07-27T12:49:38.059Z,10.91
2018-07-27T12:50:38.171Z,10.72
2018-07-27T12:51:38.113Z,10.97
2018-07-27T12:52:38.019Z,11.17
2018-07-27T12:53:38.050Z,10.83
2018-07-27T12:54:38.078Z,11.11
2018-07-27T12:55:38.138Z,10.35